CST,Max TemperatureF,Mean TemperatureF,Min TemperatureF,Max Dew PointF,MeanDew PointF,Min DewpointF,Max Humidity, Mean Humidity, Min Humidity, Max Sea Level PressureIn, Mean Sea Level PressureIn, Min Sea Level PressureIn, Max VisibilityMiles, Mean VisibilityMiles, Min VisibilityMiles, Max Wind SpeedMPH, Mean Wind SpeedMPH, Max Gust SpeedMPH,PrecipitationIn, CloudCover, Events, WindDirDegrees
2014-2-1,26,21,16,20,15,8,92,80,67,30.32,30.02,29.89,10,6,0,23,11,28,0.14,6,Fog-Snow,2
2014-2-2,19,6,-8,6,-1,-12,91,70,49,30.47,30.41,30.33,10,10,10,17,3,20,0.00,0,,329
2014-2-3,28,10,-8,14,-3,-15,87,69,50,30.43,30.34,30.29,10,5,0,13,4,16,0.00,2,Fog-Snow,157
2014-2-4,23,18,12,17,14,8,88,78,68,30.31,30.19,30.09,10,2,0,29,14,34,0.07,8,Fog-Snow,38
2014-2-5,12,0,-13,5,-3,-15,83,73,63,30.74,30.54,30.32,10,7,1,31,16,38,T,4,Snow,344
2014-2-6,6,-4,-15,-4,-9,-18,86,71,55,30.74,30.66,30.54,10,10,10,12,4,14,0.00,2,,253
2014-2-7,14,4,-7,7,-1,-11,87,70,52,30.51,30.40,30.27,10,10,10,12,5,14,0.00,7,,172
2014-2-8,27,21,14,20,14,7,84,79,73,30.26,30.18,30.09,10,8,4,15,6,20,0.00,8,,215
2014-2-9,22,16,10,18,10,1,84,75,66,30.51,30.34,30.20,10,5,1,16,10,19,0.01,8,Snow,3
2014-2-10,11,2,-7,-1,-4,-11,82,67,52,30.60,30.55,30.51,10,10,10,14,7,16,0.00,3,,1
2014-2-11,18,5,-8,3,-3,-10,82,66,49,30.58,30.46,30.27,10,10,10,14,6,16,0.00,2,,154
2014-2-12,27,18,8,20,13,0,81,69,57,30.25,30.11,29.99,10,8,2,13,6,15,T,6,Snow,199
2014-2-13,43,33,22,29,24,18,88,73,57,30.00,29.85,29.74,10,8,4,14,7,17,0.00,1,,199
2014-2-14,35,23,10,29,19,9,92,80,68,30.17,29.93,29.60,10,10,8,25,12,30,T,5,,349
2014-2-15,39,24,8,28,19,5,92,77,61,30.14,30.03,29.92,10,9,5,18,8,23,0.00,3,,191
2014-2-16,35,30,25,26,25,24,85,77,69,30.22,30.12,29.91,10,10,7,17,10,23,0.00,4,,86
2014-2-17,50,41,31,32,29,24,89,69,49,30.01,29.93,29.79,10,10,7,23,10,30,T,3,Rain,237
2014-2-18,61,47,32,36,30,23,75,56,37,29.96,29.81,29.69,10,10,10,33,12,42,0.00,0,,219
2014-2-19,51,39,26,36,31,23,92,69,46,30.03,29.85,29.59,10,10,10,15,6,22,T,4,Rain-Thunderstorm,122
2014-2-20,42,37,32,39,34,19,92,77,61,29.81,29.50,29.33,10,6,0,38,17,47,0.58,7,Fog-Rain-Snow-Thunderstorm,333
2014-2-21,52,40,27,29,24,17,85,63,41,29.93,29.88,29.80,10,10,10,28,10,36,0.00,0,,251
2014-2-22,49,38,26,33,26,12,92,73,53,30.18,30.00,29.91,10,10,10,22,9,33,0.00,1,,21
2014-2-23,31,29,26,16,13,11,63,55,46,30.41,30.34,30.21,10,10,10,20,10,23,T,8,,27
2014-2-24,33,29,24,17,14,11,68,57,45,30.42,30.34,30.23,10,10,10,14,7,19,0.00,5,,70
2014-2-25,26,21,15,19,11,1,88,70,51,30.53,30.41,30.33,10,10,4,28,13,33,T,7,Snow,358
2014-2-26,30,17,4,16,5,-4,79,58,36,30.52,30.26,30.02,10,10,10,25,11,30,0.00,0,,272
2014-2-27,28,21,13,17,0,-11,77,48,19,30.25,30.11,29.99,10,10,10,22,10,26,0.00,1,,58
2014-2-28,52,36,19,29,17,0,78,55,31,30.10,29.93,29.82,10,10,5,23,12,26,0.01,4,Rain,147